Time;durP1;ratioP1;P1;durP2;ratioP2;P2;SDS_P1;SDS_P2;PMS_P1;PMS_P2;Temp;Humidity;BMP_temperature;BMP_pressure;BME280_temperature;BME280_humidity;BME280_pressure;Samples;Min_cycle;Max_cycle;Signal;HPM_P1;HPM_P2
2023/06/17 00:02:21;;;;;;;17.33;12.50;;;15.80;99.90;;;;;;5021640;28;20043;-86
2023/06/17 00:04:48;;;;;;;21.83;12.50;;;;;;;;;;5024701;28;20052;-86
2023/06/17 00:07:14;;;;;;;17.13;11.20;;;;;;;;;;5041124;28;20040;-84
2023/06/17 00:09:44;;;;;;;15.15;10.85;;;15.70;99.90;;;;;;5041167;28;20131;-84
2023/06/17 00:12:10;;;;;;;17.08;14.20;;;;;;;;;;5009999;28;20147;-85
2023/06/17 00:14:36;;;;;;;14.52;11.60;;;;;;;;;;5041069;28;20554;-85
2023/06/17 00:17:03;;;;;;;21.95;12.32;;;;;;;;;;5040982;28;20049;-84
2023/06/17 00:19:29;;;;;;;20.25;13.05;;;;;;;;;;5040871;28;20416;-85
2023/06/17 00:21:55;;;;;;;17.70;11.90;;;;;;;;;;5057634;28;20051;-84
2023/06/17 00:24:21;;;;;;;16.95;12.35;;;15.90;99.90;;;;;;5057859;28;20040;-81
2023/06/17 00:26:48;;;;;;;24.45;12.95;;;;;;;;;;5040766;28;20508;-79
2023/06/17 00:29:15;;;;;;;21.35;14.40;;;;;;;;;;5057587;28;20059;-81
2023/06/17 00:31:41;;;;;;;17.70;13.38;;;;;;;;;;5057727;28;20059;-82
2023/06/17 00:34:07;;;;;;;17.30;14.27;;;15.80;99.90;;;;;;5024539;28;20032;-81
2023/06/17 00:36:33;;;;;;;15.65;12.57;;;;;;;;;;5040931;28;20118;-82
2023/06/17 00:38:58;;;;;;;15.77;12.38;;;15.90;99.90;;;;;;5024369;28;20068;-82
2023/06/17 00:41:25;;;;;;;15.43;12.73;;;;;;;;;;5057343;28;20076;-84
2023/06/17 00:43:51;;;;;;;18.05;13.90;;;;;;;;;;5024424;28;20452;-83
2023/06/17 00:46:24;;;;;;;17.00;13.98;;;;;;;;;;5024552;28;20048;-84
2023/06/17 00:48:50;;;;;;;19.80;13.75;;;;;;;;;;5057540;28;20092;-82
2023/06/17 00:51:16;;;;;;;18.77;14.40;;;;;;;;;;5057199;28;20040;-83
2023/06/17 00:53:42;;;;;;;19.02;14.10;;;;;;;;;;5040318;28;20044;-82
2023/06/17 00:56:08;;;;;;;26.13;15.00;;;;;;;;;;5057291;28;20036;-83
2023/06/17 00:58:35;;;;;;;30.60;15.82;;;15.80;99.90;;;;;;5057240;28;20397;-83
2023/06/17 01:01:01;;;;;;;24.20;17.55;;;;;;;;;;5040324;28;20076;-82
2023/06/17 01:03:29;;;;;;;20.90;15.02;;;15.80;99.90;;;;;;5056854;28;20131;-82
2023/06/17 01:05:59;;;;;;;29.67;17.58;;;16.10;99.90;;;;;;5024535;28;20037;-82
2023/06/17 01:08:40;;;;;;;23.13;16.58;;;16.00;99.90;;;;;;5040476;28;20059;-83
2023/06/17 01:11:14;;;;;;;23.80;16.00;;;16.00;99.90;;;;;;5056688;28;20051;-84
2023/06/17 01:13:45;;;;;;;23.85;17.33;;;16.10;99.90;;;;;;5057338;28;20401;-83
2023/06/17 01:16:11;;;;;;;25.70;17.23;;;16.10;99.90;;;;;;5056180;28;20052;-83
2023/06/17 01:18:40;;;;;;;19.45;15.70;;;15.90;99.90;;;;;;5039947;28;20037;-83
2023/06/17 01:21:06;;;;;;;22.52;17.05;;;16.10;99.90;;;;;;5039903;28;20044;-83
2023/06/17 01:23:34;;;;;;;26.58;17.38;;;16.10;99.90;;;;;;5040062;28;20400;-82
2023/06/17 01:26:01;;;;;;;23.10;17.83;;;16.20;99.90;;;;;;5040182;28;20401;-83
2023/06/17 01:28:29;;;;;;;26.73;18.88;;;16.20;99.90;;;;;;5039900;28;20134;-83
2023/06/17 01:30:55;;;;;;;27.92;17.67;;;;;;;;;;5039987;28;20067;-84
2023/06/17 01:33:24;;;;;;;24.17;16.98;;;16.20;99.90;;;;;;5040868;28;20090;-83
2023/06/17 01:36:08;;;;;;;28.95;16.80;;;16.20;99.90;;;;;;5056233;28;20131;-82
2023/06/17 01:39:03;;;;;;;23.88;16.65;;;15.80;99.90;;;;;;5055939;28;20056;-83
2023/06/17 01:41:39;;;;;;;26.48;17.13;;;16.20;99.90;;;;;;5056384;28;20048;-83
2023/06/17 01:44:05;;;;;;;26.13;16.55;;;;;;;;;;5039482;28;20109;-83
2023/06/17 01:46:31;;;;;;;27.88;17.45;;;16.10;99.90;;;;;;5039308;28;20045;-84
2023/06/17 01:48:57;;;;;;;26.50;16.58;;;16.10;99.90;;;;;;5055975;28;20052;-83
2023/06/17 01:51:24;;;;;;;27.83;17.20;;;;;;;;;;5022989;28;20037;-85
2023/06/17 01:53:50;;;;;;;24.15;17.80;;;;;;;;;;5056064;28;20087;-85
2023/06/17 01:56:17;;;;;;;23.60;17.10;;;;;;;;;;5039834;28;20053;-85
2023/06/17 01:58:42;;;;;;;25.50;16.95;;;16.10;99.90;;;;;;5039836;28;20390;-85
2023/06/17 02:01:08;;;;;;;25.45;15.23;;;;;;;;;;5022936;28;20508;-84
2023/06/17 02:03:35;;;;;;;23.25;15.68;;;;;;;;;;5038879;28;20063;-85
2023/06/17 02:06:01;;;;;;;20.98;16.15;;;;;;;;;;5055686;28;20052;-83
2023/06/17 02:08:27;;;;;;;28.73;15.57;;;;;;;;;;5038979;28;20048;-85
2023/06/17 02:10:54;;;;;;;22.65;15.63;;;;;;;;;;5039065;28;20040;-85
2023/06/17 02:13:19;;;;;;;21.05;15.75;;;16.20;99.90;;;;;;5039137;28;20048;-84
2023/06/17 02:15:46;;;;;;;28.13;15.68;;;;;;;;;;5022462;28;20562;-84
2023/06/17 02:18:12;;;;;;;23.45;15.30;;;;;;;;;;5022526;28;20041;-85
2023/06/17 02:20:38;;;;;;;21.17;15.95;;;;;;;;;;5055406;28;20036;-85
2023/06/17 02:23:04;;;;;;;25.83;17.42;;;16.10;99.90;;;;;;5038525;28;20527;-85
2023/06/17 02:25:30;;;;;;;22.33;16.00;;;16.30;99.90;;;;;;5038844;28;20550;-84
2023/06/17 02:27:56;;;;;;;26.88;16.77;;;;;;;;;;5038210;28;20131;-85
2023/06/17 02:30:22;;;;;;;24.83;16.77;;;16.10;99.90;;;;;;5055280;28;20040;-86
2023/06/17 02:32:48;;;;;;;23.58;16.13;;;;;;;;;;5038806;28;20150;-85
2023/06/17 02:35:14;;;;;;;24.67;15.77;;;;;;;;;;5055198;28;20553;-86
2023/06/17 02:37:40;;;;;;;30.50;16.38;;;;;;;;;;5055250;28;20106;-86
2023/06/17 02:40:08;;;;;;;29.85;16.48;;;16.00;99.90;;;;;;5038825;28;20409;-84
2023/06/17 02:42:38;;;;;;;19.73;15.23;;;15.90;99.90;;;;;;5055210;28;20051;-85
2023/06/17 02:45:06;;;;;;;21.77;15.70;;;16.10;99.90;;;;;;5038552;28;20123;-84
2023/06/17 02:47:32;;;;;;;26.17;16.02;;;;;;;;;;5055054;28;20135;-83
2023/06/17 02:49:58;;;;;;;24.48;15.93;;;16.10;99.90;;;;;;5022191;28;20508;-82
2023/06/17 02:52:24;;;;;;;26.40;16.73;;;;;;;;;;5038994;28;20078;-82
2023/06/17 02:54:50;;;;;;;25.23;16.77;;;15.90;99.90;;;;;;5054757;28;20497;-82
2023/06/17 02:57:16;;;;;;;23.08;16.55;;;;;;;;;;5038252;28;20051;-82
2023/06/17 02:59:47;;;;;;;29.10;18.83;;;;;;;;;;5055775;28;20063;-83
2023/06/17 03:02:13;;;;;;;26.65;16.50;;;;;;;;;;5038250;28;20048;-82
2023/06/17 03:04:39;;;;;;;26.08;17.08;;;;;;;;;;5037986;28;20056;-82
2023/06/17 03:07:05;;;;;;;27.60;16.63;;;15.70;99.90;;;;;;5038315;28;20073;-82
2023/06/17 03:09:32;;;;;;;20.75;16.20;;;;;;;;;;5055104;28;20048;-83
2023/06/17 03:12:02;;;;;;;23.10;17.45;;;16.10;99.90;;;;;;5072739;28;20048;-82
2023/06/17 03:14:29;;;;;;;23.60;17.55;;;16.00;99.90;;;;;;5054700;28;20516;-83
2023/06/17 03:16:57;;;;;;;32.03;17.58;;;15.80;99.90;;;;;;5021766;28;20056;-82
2023/06/17 03:19:24;;;;;;;20.20;14.57;;;15.70;99.90;;;;;;5038381;28;20045;-82
2023/06/17 03:21:50;;;;;;;17.52;13.77;;;;;;;;;;5054589;28;20045;-82
2023/06/17 03:24:16;;;;;;;16.42;13.88;;;;;;;;;;5038146;28;20044;-82
2023/06/17 03:26:43;;;;;;;24.85;14.82;;;;;;;;;;5055039;28;20123;-83
2023/06/17 03:29:09;;;;;;;20.48;14.77;;;;;;;;;;5038025;28;20044;-82
2023/06/17 03:31:36;;;;;;;17.35;13.52;;;16.00;99.90;;;;;;5054429;28;20056;-83
2023/06/17 03:34:02;;;;;;;18.45;13.80;;;15.80;99.90;;;;;;5038121;28;20114;-82
2023/06/17 03:36:29;;;;;;;17.80;13.43;;;;;;;;;;5037900;28;20440;-81
2023/06/17 03:38:58;;;;;;;19.27;13.52;;;15.80;99.90;;;;;;5024529;28;20032;-82
2023/06/17 03:41:24;;;;;;;20.92;13.98;;;16.00;99.90;;;;;;5025100;28;20121;-82
2023/06/17 03:43:50;;;;;;;17.70;12.75;;;;;;;;;;5058121;28;20048;-83
2023/06/17 03:46:16;;;;;;;22.13;13.65;;;15.90;99.90;;;;;;5058390;28;20494;-83
2023/06/17 03:48:42;;;;;;;19.95;13.02;;;;;;;;;;5041597;28;20043;-83
2023/06/17 03:51:09;;;;;;;16.48;14.00;;;;;;;;;;5041856;28;20064;-84
2023/06/17 03:53:35;;;;;;;18.20;13.10;;;;;;;;;;5041745;28;20135;-83
2023/06/17 03:56:01;;;;;;;18.25;13.43;;;;;;;;;;5041577;28;20032;-82
2023/06/17 03:58:28;;;;;;;23.35;13.85;;;15.90;99.90;;;;;;5025594;28;20048;-83
2023/06/17 04:00:54;;;;;;;20.10;12.65;;;;;;;;;;5041925;28;20043;-81
2023/06/17 04:03:24;;;;;;;15.27;13.02;;;;;;;;;;5024726;28;20052;-82
2023/06/17 04:05:51;;;;;;;23.85;13.18;;;16.00;99.90;;;;;;5041384;28;20051;-81
2023/06/17 04:08:18;;;;;;;20.73;13.70;;;;;;;;;;5025431;28;20139;-84
2023/06/17 04:10:44;;;;;;;18.15;14.15;;;;;;;;;;5041371;28;20040;-84
2023/06/17 04:13:10;;;;;;;23.58;13.82;;;;;;;;;;5058107;28;20044;-83
2023/06/17 04:15:36;;;;;;;21.58;14.63;;;;;;;;;;5041444;28;20037;-83
2023/06/17 04:18:02;;;;;;;20.73;13.95;;;15.90;99.90;;;;;;5057809;28;20066;-84
2023/06/17 04:20:34;;;;;;;19.40;14.55;;;15.90;99.90;;;;;;5010469;28;20442;-84
2023/06/17 04:23:01;;;;;;;21.35;15.02;;;;;;;;;;5025032;28;20045;-84
2023/06/17 04:25:27;;;;;;;18.40;14.30;;;;;;;;;;5057918;28;20131;-83
2023/06/17 04:27:56;;;;;;;21.33;14.77;;;15.90;99.90;;;;;;5057873;28;20037;-83
2023/06/17 04:30:25;;;;;;;27.20;15.60;;;;;;;;;;5025044;28;20040;-82
2023/06/17 04:32:54;;;;;;;20.05;12.70;;;;;;;;;;5041257;28;20393;-83
2023/06/17 04:35:20;;;;;;;21.40;14.68;;;15.90;99.90;;;;;;5057503;28;20121;-82
2023/06/17 04:37:53;;;;;;;20.33;14.60;;;16.10;99.90;;;;;;5057417;28;20099;-82
2023/06/17 04:40:20;;;;;;;24.27;13.90;;;16.00;99.90;;;;;;5057446;28;20076;-83
2023/06/17 04:42:47;;;;;;;24.25;15.80;;;;;;;;;;5024229;28;20140;-83
2023/06/17 04:45:13;;;;;;;30.73;17.33;;;;;;;;;;5040524;28;20131;-83
2023/06/17 04:47:40;;;;;;;25.38;17.98;;;;;;;;;;5040424;28;20037;-83
2023/06/17 04:50:06;;;;;;;29.30;18.67;;;15.80;99.90;;;;;;5040100;28;20553;-83
2023/06/17 04:52:32;;;;;;;27.80;19.80;;;;;;;;;;5040708;28;20048;-83
2023/06/17 04:54:58;;;;;;;27.52;18.02;;;15.90;99.90;;;;;;5057315;28;20067;-82
2023/06/17 04:57:24;;;;;;;28.42;19.33;;;16.10;99.90;;;;;;5040563;28;20044;-82
2023/06/17 04:59:50;;;;;;;24.92;17.60;;;;;;;;;;5040358;28;20353;-82
2023/06/17 05:02:16;;;;;;;27.75;19.30;;;;;;;;;;5056645;28;20044;-82
2023/06/17 05:04:42;;;;;;;24.88;18.35;;;;;;;;;;5056532;28;20063;-82
2023/06/17 05:07:08;;;;;;;28.80;18.52;;;;;;;;;;5023868;28;20102;-83
2023/06/17 05:09:34;;;;;;;24.40;17.67;;;;;;;;;;5056710;28;20044;-82
2023/06/17 05:12:00;;;;;;;25.40;17.75;;;15.90;99.90;;;;;;5057334;28;20044;-82
2023/06/17 05:14:26;;;;;;;25.23;17.85;;;;;;;;;;5024156;28;20378;-83
2023/06/17 05:16:52;;;;;;;25.05;15.80;;;;;;;;;;5039843;28;20087;-82
2023/06/17 05:19:18;;;;;;;30.27;17.27;;;;;;;;;;5039789;28;20048;-83
2023/06/17 05:21:44;;;;;;;23.80;15.32;;;;;;;;;;5040235;28;20044;-82
2023/06/17 05:24:10;;;;;;;23.58;16.20;;;;;;;;;;5039918;28;20087;-82
2023/06/17 05:26:36;;;;;;;21.40;14.95;;;15.90;99.90;;;;;;5040040;28;20063;-83
2023/06/17 05:29:02;;;;;;;27.00;14.98;;;;;;;;;;5023492;28;20493;-83
2023/06/17 05:31:28;;;;;;;23.35;14.52;;;15.80;99.90;;;;;;5056476;28;20131;-85
2023/06/17 05:33:54;;;;;;;22.40;13.80;;;;;;;;;;5023323;28;20130;-85
2023/06/17 05:36:20;;;;;;;19.75;15.05;;;;;;;;;;5039843;28;20127;-84
2023/06/17 05:38:46;;;;;;;26.52;15.73;;;;;;;;;;5056080;28;20043;-85
2023/06/17 05:41:12;;;;;;;24.15;16.05;;;;;;;;;;5039542;28;20570;-85
2023/06/17 05:43:38;;;;;;;23.88;14.00;;;;;;;;;;5056900;28;20048;-85
2023/06/17 05:46:05;;;;;;;22.35;15.07;;;;;;;;;;5039540;28;20501;-85
2023/06/17 05:48:31;;;;;;;25.20;15.35;;;;;;;;;;5039479;28;20093;-85
2023/06/17 05:50:57;;;;;;;23.83;16.00;;;;;;;;;;5039734;28;20180;-85
2023/06/17 05:53:23;;;;;;;23.40;15.75;;;;;;;;;;5039657;28;20106;-85
2023/06/17 05:55:49;;;;;;;19.63;16.35;;;;;;;;;;5023108;28;20032;-84
2023/06/17 05:58:15;;;;;;;24.73;16.60;;;15.90;99.90;;;;;;5055944;28;20079;-84
2023/06/17 06:00:41;;;;;;;22.90;16.35;;;;;;;;;;5039222;28;20044;-84
2023/06/17 06:03:07;;;;;;;24.30;17.02;;;;;;;;;;5039242;28;20059;-85
2023/06/17 06:05:33;;;;;;;28.95;17.67;;;;;;;;;;5039007;28;20059;-84
2023/06/17 06:07:59;;;;;;;23.60;17.05;;;;;;;;;;5038930;28;20497;-85
2023/06/17 06:10:28;;;;;;;23.90;18.65;;;16.00;99.90;;;;;;5038918;28;20043;-83
2023/06/17 06:12:54;;;;;;;25.70;17.38;;;;;;;;;;5039480;28;20037;-83
2023/06/17 06:15:20;;;;;;;25.15;17.13;;;;;;;;;;5040175;28;20048;-83
2023/06/17 06:17:46;;;;;;;27.27;18.48;;;;;;;;;;5055794;28;20135;-83
2023/06/17 06:20:12;;;;;;;28.70;18.25;;;;;;;;;;5055389;28;20051;-83
2023/06/17 06:22:38;;;;;;;27.92;19.63;;;;;;;;;;5055358;28;20044;-83
2023/06/17 06:25:05;;;;;;;25.67;18.13;;;16.20;99.90;;;;;;5039031;28;20463;-82
2023/06/17 06:27:31;;;;;;;22.27;16.23;;;16.10;99.90;;;;;;5022904;28;20449;-83
2023/06/17 06:29:58;;;;;;;22.10;16.92;;;16.30;99.90;;;;;;5023098;28;20135;-82
2023/06/17 06:32:23;;;;;;;22.58;15.75;;;16.20;99.90;;;;;;5038920;28;20041;-83
2023/06/17 06:34:50;;;;;;;26.48;16.25;;;;;;;;;;5038736;28;20051;-83
2023/06/17 06:37:16;;;;;;;23.20;17.13;;;;;;;;;;5054957;28;20076;-83
2023/06/17 06:39:42;;;;;;;24.98;16.80;;;16.40;99.90;;;;;;5038303;28;20040;-83
2023/06/17 06:42:08;;;;;;;20.27;16.45;;;16.30;99.90;;;;;;5038793;28;20048;-83
2023/06/17 06:44:34;;;;;;;22.02;15.80;;;;;;;;;;5038376;28;20040;-83
2023/06/17 06:47:01;;;;;;;22.73;15.68;;;;;;;;;;5022078;28;20072;-83
2023/06/17 06:49:27;;;;;;;26.60;16.85;;;;;;;;;;5038793;28;20111;-84
2023/06/17 06:51:53;;;;;;;20.67;14.02;;;;;;;;;;5055190;28;20052;-83
2023/06/17 06:54:18;;;;;;;18.20;12.02;;;16.20;99.90;;;;;;5054974;28;20036;-83
2023/06/17 06:56:45;;;;;;;20.45;12.85;;;;;;;;;;5038559;28;20054;-83
2023/06/17 06:59:10;;;;;;;19.58;12.98;;;16.30;99.90;;;;;;5038453;28;20389;-84
2023/06/17 07:01:36;;;;;;;19.08;12.77;;;;;;;;;;5055559;28;20139;-84
2023/06/17 07:04:02;;;;;;;17.60;11.18;;;16.60;99.90;;;;;;5038244;28;20047;-84
2023/06/17 07:06:28;;;;;;;17.17;12.68;;;;;;;;;;5021903;28;20135;-84
2023/06/17 07:08:54;;;;;;;15.90;11.27;;;16.70;99.90;;;;;;5054761;28;20045;-84
2023/06/17 07:11:20;;;;;;;13.68;11.63;;;16.80;99.90;;;;;;5038147;28;20090;-84
2023/06/17 07:13:46;;;;;;;17.63;11.68;;;16.90;99.90;;;;;;5040976;28;20041;-83
2023/06/17 07:16:12;;;;;;;17.77;14.05;;;;;;;;;;5042343;28;20080;-84
2023/06/17 07:18:37;;;;;;;20.15;12.15;;;17.00;99.90;;;;;;5059217;28;20052;-83
2023/06/17 07:21:03;;;;;;;19.80;12.85;;;;;;;;;;5025835;28;20132;-84
2023/06/17 07:23:30;;;;;;;16.33;11.82;;;16.90;99.90;;;;;;5058747;28;20044;-83
2023/06/17 07:25:56;;;;;;;22.33;12.32;;;;;;;;;;5042292;28;20043;-84
2023/06/17 07:28:22;;;;;;;18.05;11.30;;;17.20;99.90;;;;;;5042264;28;20048;-84
2023/06/17 07:30:48;;;;;;;19.05;12.00;;;16.90;99.90;;;;;;5058839;28;20044;-82
2023/06/17 07:33:14;;;;;;;17.05;11.38;;;;;;;;;;5042465;28;20074;-83
2023/06/17 07:35:40;;;;;;;18.83;10.73;;;17.30;99.90;;;;;;5042270;28;20036;-83
2023/06/17 07:38:06;;;;;;;17.75;11.55;;;17.40;99.90;;;;;;5009231;28;20511;-82
2023/06/17 07:40:32;;;;;;;14.65;11.88;;;;;;;;;;5042174;28;20037;-82
2023/06/17 07:42:57;;;;;;;17.38;11.35;;;17.40;99.90;;;;;;5058463;28;20109;-82
2023/06/17 07:45:23;;;;;;;20.25;11.40;;;17.70;99.90;;;;;;5041906;28;20040;-85
2023/06/17 07:47:49;;;;;;;15.68;11.07;;;;;;;;;;5042044;28;20044;-85
2023/06/17 07:50:15;;;;;;;16.10;11.50;;;18.00;99.90;;;;;;5058124;28;20041;-85
2023/06/17 07:52:40;;;;;;;18.10;11.90;;;18.00;99.90;;;;;;5041473;28;20094;-85
2023/06/17 07:55:10;;;;;;;16.30;11.13;;;17.80;99.90;;;;;;5008979;28;20067;-85
2023/06/17 07:57:37;;;;;;;19.65;11.57;;;;;;;;;;5058187;28;20051;-85
2023/06/17 08:00:09;;;;;;;18.88;11.52;;;17.60;99.90;;;;;;5058156;28;20044;-85
2023/06/17 08:02:36;;;;;;;16.47;11.90;;;;;;;;;;5058078;28;20037;-84
2023/06/17 08:05:02;;;;;;;18.80;11.13;;;;;;;;;;5041465;28;20048;-84
2023/06/17 08:07:27;;;;;;;19.55;11.40;;;18.00;99.90;;;;;;5041561;28;20105;-85
2023/06/17 08:09:54;;;;;;;22.27;12.57;;;;;;;;;;5041591;28;20135;-85
2023/06/17 08:12:20;;;;;;;19.98;12.20;;;;;;;;;;5025004;28;20040;-85
2023/06/17 08:14:46;;;;;;;17.77;11.60;;;;;;;;;;5041673;28;20408;-85
2023/06/17 08:17:12;;;;;;;18.25;10.82;;;;;;;;;;5041574;28;20045;-85
2023/06/17 08:19:38;;;;;;;19.15;13.50;;;;;;;;;;5057934;28;20044;-85
2023/06/17 08:22:04;;;;;;;17.95;11.70;;;18.20;99.90;;;;;;5041717;28;20040;-85
2023/06/17 08:24:29;;;;;;;17.02;11.40;;;18.20;99.90;;;;;;5023310;28;20055;-85
2023/06/17 08:26:55;;;;;;;18.55;11.98;;;;;;;;;;5024635;28;20127;-87
2023/06/17 08:29:22;;;;;;;18.27;11.95;;;;;;;;;;5041335;28;20397;-86
2023/06/17 08:31:51;;;;;;;18.33;10.73;;;18.70;99.90;;;;;;5041590;28;20048;-85
2023/06/17 08:34:16;;;;;;;19.33;12.65;;;19.00;99.90;;;;;;5057602;28;20052;-85
2023/06/17 08:36:44;;;;;;;17.13;11.20;;;18.90;99.90;;;;;;5041499;28;20050;-86
2023/06/17 08:39:10;;;;;;;15.77;10.85;;;19.30;99.90;;;;;;5057829;28;20049;-86
2023/06/17 08:41:42;;;;;;;21.48;12.93;;;19.20;99.90;;;;;;5041286;28;20044;-86
2023/06/17 08:44:12;;;;;;;22.63;12.80;;;19.20;99.90;;;;;;5057360;28;20052;-86
2023/06/17 08:46:43;;;;;;;16.48;12.48;;;19.40;99.90;;;;;;5041089;28;20670;-87
2023/06/17 08:49:12;;;;;;;17.85;11.10;;;19.40;99.90;;;;;;5041664;28;20052;-86
2023/06/17 08:51:38;;;;;;;12.32;11.02;;;;;;;;;;5040738;28;20171;-86
2023/06/17 08:54:04;;;;;;;13.80;10.55;;;19.60;99.90;;;;;;5040731;28;20055;-86
2023/06/17 08:56:30;;;;;;;19.88;10.55;;;20.00;99.90;;;;;;5024135;28;20072;-86
2023/06/17 08:58:56;;;;;;;16.08;11.23;;;20.00;99.90;;;;;;5024661;28;20110;-87
2023/06/17 09:01:23;;;;;;;13.93;10.15;;;19.70;99.90;;;;;;5024143;28;20039;-87
2023/06/17 09:03:53;;;;;;;16.15;10.13;;;19.90;99.90;;;;;;5040856;28;20054;-86
2023/06/17 09:06:29;;;;;;;16.67;11.27;;;20.30;99.90;;;;;;5042697;28;20111;-86
2023/06/17 09:08:57;;;;;;;16.25;10.88;;;20.00;99.90;;;;;;5057379;28;20520;-85
2023/06/17 09:11:26;;;;;;;16.13;10.98;;;20.20;99.90;;;;;;5057629;28;20086;-85
2023/06/17 09:13:53;;;;;;;18.10;10.45;;;20.30;99.90;;;;;;5057447;28;20094;-86
2023/06/17 09:16:45;;;;;;;17.80;10.85;;;20.30;99.90;;;;;;5040814;28;20036;-86
2023/06/17 09:19:14;;;;;;;17.17;10.18;;;20.30;99.90;;;;;;5037235;28;20098;-86
2023/06/17 09:21:47;;;;;;;16.58;9.20;;;20.60;99.70;;;;;;5040481;28;20048;-84
2023/06/17 09:24:33;;;;;;;13.43;9.27;;;20.60;99.90;;;;;;5040356;28;20117;-85
2023/06/17 09:27:00;;;;;;;20.63;8.73;;;20.80;99.90;;;;;;5057113;28;20443;-85
2023/06/17 09:29:29;;;;;;;12.93;7.78;;;20.60;99.90;;;;;;5041127;28;20044;-85
2023/06/17 09:31:57;;;;;;;12.68;8.23;;;20.50;99.70;;;;;;5058142;28;20036;-84
2023/06/17 09:34:26;;;;;;;9.88;8.18;;;20.90;99.80;;;;;;5041032;28;20134;-85
2023/06/17 09:36:55;;;;;;;21.88;9.32;;;21.20;99.80;;;;;;5040056;28;20132;-85
2023/06/17 09:39:29;;;;;;;11.60;8.25;;;21.00;98.80;;;;;;5040784;28;20092;-86
2023/06/17 09:41:56;;;;;;;17.90;10.70;;;20.80;98.10;;;;;;5057139;28;20399;-85
2023/06/17 09:44:23;;;;;;;11.70;9.07;;;21.20;97.60;;;;;;5040266;28;20045;-85
2023/06/17 09:46:49;;;;;;;10.02;8.52;;;21.10;97.10;;;;;;5056894;28;20131;-85
2023/06/17 09:49:23;;;;;;;13.80;9.52;;;21.30;96.80;;;;;;5024112;28;20045;-85
2023/06/17 09:51:51;;;;;;;;;;;21.30;96.50;;;;;;5041964;28;20036;-85
2023/06/17 09:54:18;;;;;;;15.73;10.10;;;21.30;97.00;;;;;;5057040;28;19920;-86
2023/06/17 09:56:46;;;;;;;12.57;9.45;;;21.40;96.20;;;;;;5040857;28;20435;-84
2023/06/17 09:59:11;;;;;;;10.65;7.70;;;21.30;96.00;;;;;;5057434;28;20547;-86
2023/06/17 10:01:41;;;;;;;12.07;8.48;;;21.50;96.20;;;;;;5023912;28;20139;-86
2023/06/17 10:04:07;;;;;;;12.55;9.38;;;21.70;95.50;;;;;;5024151;28;20048;-86
2023/06/17 10:06:39;;;;;;;11.50;8.40;;;21.80;95.80;;;;;;5040090;28;20045;-86
2023/06/17 10:09:07;;;;;;;13.73;8.77;;;21.90;95.90;;;;;;5039983;28;20049;-86
2023/06/17 10:11:39;;;;;;;12.43;9.27;;;21.90;94.70;;;;;;5040306;28;20067;-86
2023/06/17 10:14:12;;;;;;;11.90;7.75;;;22.00;94.10;;;;;;5039774;28;20043;-86
2023/06/17 10:16:45;;;;;;;11.52;8.55;;;22.50;93.70;;;;;;5040256;28;20051;-86
2023/06/17 10:19:13;;;;;;;11.85;9.02;;;22.00;93.40;;;;;;5040464;28;20511;-87
2023/06/17 10:21:46;;;;;;;14.35;8.77;;;22.50;92.90;;;;;;5056685;28;20531;-87
2023/06/17 10:24:13;;;;;;;9.75;8.43;;;22.40;92.80;;;;;;5056237;28;20476;-85
2023/06/17 10:26:39;;;;;;;9.63;8.40;;;22.50;92.60;;;;;;5040192;28;20049;-85
2023/06/17 10:29:10;;;;;;;11.50;8.13;;;22.50;92.10;;;;;;5055937;28;20496;-84
2023/06/17 10:31:45;;;;;;;12.93;9.07;;;24.00;91.70;;;;;;5056253;28;20409;-84
2023/06/17 10:34:21;;;;;;;14.32;9.25;;;22.40;91.50;;;;;;5040009;28;20071;-83
2023/06/17 10:36:51;;;;;;;10.57;8.82;;;22.70;91.20;;;;;;5022646;28;20191;-84
2023/06/17 10:39:17;;;;;;;11.25;9.52;;;21.20;90.80;;;;;;5055860;28;20118;-84
2023/06/17 10:41:45;;;;;;;12.88;8.95;;;22.50;91.00;;;;;;5006214;28;20048;-84
2023/06/17 10:44:24;;;;;;;13.85;9.30;;;22.80;91.20;;;;;;5055173;28;20040;-84
2023/06/17 10:46:50;;;;;;;12.27;8.93;;;22.60;87.30;;;;;;5038787;28;20178;-84
2023/06/17 10:49:20;;;;;;;13.65;9.77;;;22.90;87.90;;;;;;5055370;28;20047;-84
2023/06/17 10:51:46;;;;;;;11.25;8.85;;;22.90;86.90;;;;;;5022718;28;20505;-84
2023/06/17 10:54:12;;;;;;;12.23;9.25;;;21.70;86.20;;;;;;5022527;28;20070;-84
2023/06/17 10:56:53;;;;;;;13.57;8.52;;;23.10;87.40;;;;;;5023020;28;20040;-84
2023/06/17 10:59:32;;;;;;;15.57;8.23;;;23.20;85.90;;;;;;5055823;28;20044;-84
2023/06/17 11:02:03;;;;;;;14.18;8.65;;;23.10;83.10;;;;;;5038595;28;20055;-84
2023/06/17 11:04:31;;;;;;;9.68;7.93;;;23.20;83.70;;;;;;5054987;28;20052;-84
2023/06/17 11:06:58;;;;;;;17.88;9.02;;;23.30;82.20;;;;;;5055710;28;20144;-84
2023/06/17 11:09:25;;;;;;;10.98;8.13;;;23.20;83.00;;;;;;5055205;28;20556;-84
2023/06/17 11:11:52;;;;;;;11.65;8.27;;;23.50;82.90;;;;;;5054946;28;20125;-84
2023/06/17 11:14:18;;;;;;;12.30;8.00;;;23.40;81.10;;;;;;5055554;28;20444;-84
2023/06/17 11:16:44;;;;;;;10.98;8.30;;;23.30;80.50;;;;;;5038564;28;20102;-81
2023/06/17 11:19:10;;;;;;;14.70;8.93;;;23.70;79.90;;;;;;5006083;28;20040;-81
2023/06/17 11:21:37;;;;;;;11.40;8.75;;;23.60;80.30;;;;;;5038713;28;20043;-81
2023/06/17 11:24:03;;;;;;;11.73;8.50;;;23.80;81.00;;;;;;5055269;28;20091;-84
2023/06/17 11:26:29;;;;;;;11.02;8.23;;;23.70;81.10;;;;;;5022278;28;20045;-84
2023/06/17 11:28:55;;;;;;;14.82;9.02;;;23.90;81.30;;;;;;5038678;28;20094;-83
2023/06/17 11:31:25;;;;;;;10.18;7.30;;;24.30;81.30;;;;;;5022119;28;20128;-83
2023/06/17 11:34:00;;;;;;;13.30;7.65;;;24.30;79.90;;;;;;5006591;28;20054;-84
2023/06/17 11:36:26;;;;;;;9.40;7.68;;;24.30;77.20;;;;;;5021812;28;20048;-82
2023/06/17 11:38:55;;;;;;;11.48;6.97;;;24.30;78.40;;;;;;5038338;28;20048;-82
2023/06/17 11:41:21;;;;;;;11.50;7.20;;;24.60;78.10;;;;;;5054765;28;20120;-82
2023/06/17 11:43:49;;;;;;;13.13;7.93;;;24.60;77.80;;;;;;5038484;28;20045;-82
2023/06/17 11:46:25;;;;;;;9.95;7.47;;;24.70;76.10;;;;;;5005617;28;20043;-83
2023/06/17 11:48:51;;;;;;;13.55;7.82;;;24.70;73.90;;;;;;5038081;28;20515;-82
2023/06/17 11:51:17;;;;;;;13.73;8.23;;;24.70;73.40;;;;;;5055248;28;20048;-83
2023/06/17 11:53:48;;;;;;;8.20;6.93;;;24.60;72.40;;;;;;5055297;28;20048;-83
2023/06/17 11:56:22;;;;;;;12.88;7.78;;;24.70;71.40;;;;;;5055169;28;20039;-82
2023/06/17 11:58:51;;;;;;;10.00;7.28;;;24.90;71.40;;;;;;5039138;28;20052;-83
2023/06/17 12:01:24;;;;;;;14.27;7.28;;;24.90;72.00;;;;;;5041915;28;20115;-83
2023/06/17 12:03:50;;;;;;;10.63;7.13;;;24.70;71.50;;;;;;5025716;28;20047;-84
2023/06/17 12:06:18;;;;;;;9.45;7.47;;;24.90;71.10;;;;;;5042011;28;20045;-83
2023/06/17 12:08:44;;;;;;;10.93;7.03;;;25.00;69.80;;;;;;5042457;28;20045;-82
2023/06/17 12:11:25;;;;;;;10.27;7.30;;;25.50;69.80;;;;;;5041752;28;20428;-83
2023/06/17 12:13:51;;;;;;;11.48;7.20;;;25.40;69.90;;;;;;5041535;28;20443;-83
2023/06/17 12:16:23;;;;;;;11.45;6.82;;;25.00;67.90;;;;;;5041590;28;20048;-84
2023/06/17 12:18:50;;;;;;;12.67;6.20;;;25.50;68.40;;;;;;5042128;28;20048;-83
2023/06/17 12:21:18;;;;;;;10.55;7.07;;;25.30;68.20;;;;;;5042245;28;20123;-84
2023/06/17 12:23:45;;;;;;;13.13;7.10;;;25.30;66.80;;;;;;5057866;28;20048;-84
2023/06/17 12:26:11;;;;;;;10.10;8.30;;;25.70;66.50;;;;;;5041425;28;20043;-84
2023/06/17 12:28:40;;;;;;;9.93;7.13;;;25.40;66.90;;;;;;5024998;28;20044;-85
2023/06/17 12:31:05;;;;;;;8.95;6.82;;;25.60;66.60;;;;;;5041424;28;20090;-85
2023/06/17 12:33:31;;;;;;;10.20;7.50;;;25.80;65.80;;;;;;5059428;28;20044;-84
2023/06/17 12:35:57;;;;;;;10.75;7.97;;;25.80;65.60;;;;;;5025932;28;20075;-84
2023/06/17 12:38:28;;;;;;;10.52;6.50;;;25.80;65.10;;;;;;5059680;28;20103;-83
2023/06/17 12:40:54;;;;;;;10.50;7.28;;;25.70;65.50;;;;;;5043300;28;20037;-84
2023/06/17 12:43:19;;;;;;;9.90;7.72;;;25.00;64.10;;;;;;5042940;28;20425;-83
2023/06/17 12:45:45;;;;;;;9.43;6.60;;;25.60;65.20;;;;;;5044152;28;20052;-83
2023/06/17 12:48:11;;;;;;;10.77;7.22;;;25.60;65.70;;;;;;5044345;28;20045;-82
2023/06/17 12:50:37;;;;;;;10.25;6.75;;;25.60;65.00;;;;;;5043934;28;20098;-82
2023/06/17 12:53:10;;;;;;;17.13;7.43;;;25.90;65.30;;;;;;5045123;28;20037;-82
2023/06/17 12:55:37;;;;;;;9.35;6.80;;;25.90;65.00;;;;;;5044443;28;20051;-82
2023/06/17 12:58:04;;;;;;;14.55;8.60;;;25.90;62.50;;;;;;5028652;28;20037;-82
2023/06/17 13:00:30;;;;;;;10.68;7.55;;;25.90;63.00;;;;;;5011874;28;20044;-82
2023/06/17 13:02:55;;;;;;;8.07;6.95;;;25.90;63.20;;;;;;5060339;28;20441;-82
2023/06/17 13:05:21;;;;;;;10.57;6.75;;;25.90;64.00;;;;;;5027315;28;20421;-82
2023/06/17 13:07:47;;;;;;;10.60;7.22;;;25.90;64.50;;;;;;5027343;28;20515;-82
2023/06/17 13:10:12;;;;;;;14.07;7.30;;;25.90;64.40;;;;;;5044024;28;20105;-81
2023/06/17 13:12:38;;;;;;;13.60;6.38;;;25.90;63.50;;;;;;5027878;28;20045;-82